createdAt,value
2023-04-23T00:00:24.732Z,62.47
2023-04-23T00:02:53.910Z,62.93
2023-04-23T00:05:20.707Z,61.29
2023-04-23T00:07:47.494Z,58.83
2023-04-23T00:10:14.167Z,60.29
2023-04-23T00:12:41.442Z,60.43
2023-04-23T00:15:08.659Z,61.17
2023-04-23T00:17:35.084Z,56.85
2023-04-23T00:20:02.252Z,60.65
2023-04-23T00:22:28.897Z,58.74
2023-04-23T00:24:55.378Z,58.36
2023-04-23T00:27:22.119Z,57.96
2023-04-23T00:29:48.597Z,60.33
2023-04-23T00:32:15.120Z,59.55
2023-04-23T00:34:41.993Z,58.90
2023-04-23T00:37:08.669Z,58.63
2023-04-23T00:39:37.605Z,59.69
2023-04-23T00:42:11.521Z,60.13
2023-04-23T00:44:38.965Z,60.20
2023-04-23T00:47:07.208Z,62.45
2023-04-23T00:49:34.654Z,62.72
2023-04-23T00:52:01.354Z,63.42
2023-04-23T00:54:28.361Z,63.66
2023-04-23T00:56:57.998Z,63.14
2023-04-23T00:59:28.670Z,63.84
2023-04-23T01:01:56.021Z,64.44
2023-04-23T01:04:24.637Z,63.66
2023-04-23T01:06:51.665Z,64.86
2023-04-23T01:09:18.279Z,65.08
2023-04-23T01:11:44.974Z,64.95
2023-04-23T01:14:11.712Z,64.40
2023-04-23T01:16:38.683Z,65.83
2023-04-23T01:19:11.895Z,65.53
2023-04-23T01:21:42.415Z,65.51
2023-04-23T01:24:10.700Z,66.03
2023-04-23T01:26:37.620Z,66.00
2023-04-23T01:29:04.877Z,66.35
2023-04-23T01:31:31.900Z,66.22
2023-04-23T01:33:59.246Z,67.26
2023-04-23T01:36:41.834Z,67.19
2023-04-23T01:39:12.155Z,66.61
2023-04-23T01:41:39.147Z,68.18
2023-04-23T01:44:05.838Z,67.57
2023-04-23T01:46:33.137Z,67.98
2023-04-23T01:48:59.766Z,68.42
2023-04-23T01:51:27.125Z,67.80
2023-04-23T01:53:53.682Z,67.44
2023-04-23T01:56:23.573Z,68.16
2023-04-23T01:58:51.779Z,67.78
2023-04-23T02:01:18.473Z,68.40
2023-04-23T02:03:46.621Z,68.67
2023-04-23T02:06:13.746Z,69.20
2023-04-23T02:08:41.084Z,68.57
2023-04-23T02:11:07.675Z,68.71
2023-04-23T02:13:34.765Z,68.92
2023-04-23T02:16:01.807Z,69.73
2023-04-23T02:18:28.336Z,69.73
2023-04-23T02:20:54.929Z,69.29
2023-04-23T02:23:21.412Z,69.65
2023-04-23T02:25:47.976Z,70.27
2023-04-23T02:28:14.676Z,68.47
2023-04-23T02:30:45.966Z,69.55
2023-04-23T02:33:12.875Z,69.63
2023-04-23T02:35:39.491Z,69.35
2023-04-23T02:38:06.036Z,70.78
2023-04-23T02:40:32.616Z,69.94
2023-04-23T02:42:59.234Z,70.42
2023-04-23T02:45:25.779Z,70.72
2023-04-23T02:47:53.578Z,68.17
2023-04-23T02:50:20.255Z,68.17
2023-04-23T02:52:47.842Z,69.81
2023-04-23T02:55:14.276Z,69.29
2023-04-23T02:57:41.082Z,70.17
2023-04-23T03:00:08.493Z,70.75
2023-04-23T03:02:35.540Z,70.77
2023-04-23T03:05:02.208Z,70.27
2023-04-23T03:07:28.994Z,70.01
2023-04-23T03:09:55.457Z,71.04
2023-04-23T03:12:21.851Z,71.25
2023-04-23T03:14:48.400Z,71.01
2023-04-23T03:17:14.958Z,70.51
2023-04-23T03:19:41.745Z,71.36
2023-04-23T03:22:08.135Z,71.10
2023-04-23T03:24:35.054Z,70.31
2023-04-23T03:27:01.751Z,70.50
2023-04-23T03:29:28.431Z,69.04
2023-04-23T03:31:54.954Z,68.01
2023-04-23T03:34:21.478Z,66.99
2023-04-23T03:36:48.812Z,65.14
2023-04-23T03:39:15.645Z,66.57
2023-04-23T03:41:42.191Z,66.52
2023-04-23T03:44:09.202Z,66.95
2023-04-23T03:46:35.721Z,67.99
2023-04-23T03:49:02.318Z,67.38
2023-04-23T03:51:29.138Z,67.89
2023-04-23T03:53:55.673Z,68.10
2023-04-23T03:56:22.153Z,65.43
2023-04-23T03:58:48.610Z,64.22
2023-04-23T04:01:15.123Z,63.80
2023-04-23T04:03:41.691Z,63.09
2023-04-23T04:06:08.997Z,63.86
2023-04-23T04:08:36.161Z,64.72
2023-04-23T04:11:02.644Z,64.82
2023-04-23T04:13:29.153Z,64.30
2023-04-23T04:15:56.038Z,65.40
2023-04-23T04:18:22.539Z,66.77
2023-04-23T04:20:48.995Z,68.35
2023-04-23T04:23:15.808Z,68.85
2023-04-23T04:25:42.295Z,71.44
2023-04-23T04:28:11.652Z,73.58
2023-04-23T04:30:39.442Z,75.85
2023-04-23T04:33:05.990Z,75.88
2023-04-23T04:35:32.556Z,76.38
2023-04-23T04:37:59.020Z,78.98
2023-04-23T04:40:28.584Z,81.99
2023-04-23T04:42:55.153Z,81.64
2023-04-23T04:45:21.718Z,82.45
2023-04-23T04:47:48.410Z,83.28
2023-04-23T04:50:15.060Z,83.34
2023-04-23T04:52:41.481Z,83.27
2023-04-23T04:55:08.354Z,84.00
2023-04-23T04:57:34.922Z,83.05
2023-04-23T05:00:05.117Z,82.49
2023-04-23T05:02:31.883Z,81.88
2023-04-23T05:04:58.449Z,80.54
2023-04-23T05:07:25.015Z,79.46
2023-04-23T05:09:51.508Z,79.39
2023-04-23T05:12:17.976Z,79.19
2023-04-23T05:14:44.486Z,77.34
2023-04-23T05:17:11.749Z,71.88
2023-04-23T05:19:38.300Z,70.84
2023-04-23T05:22:04.805Z,71.68
2023-04-23T05:24:31.609Z,65.18
2023-04-23T05:26:58.770Z,63.69
2023-04-23T05:29:25.191Z,63.44
2023-04-23T05:31:52.198Z,62.04
2023-04-23T05:34:18.664Z,61.60
2023-04-23T05:36:45.305Z,62.27
2023-04-23T05:39:12.551Z,62.01
2023-04-23T05:41:38.942Z,61.27
2023-04-23T05:44:05.410Z,60.44
2023-04-23T05:46:32.029Z,60.12
2023-04-23T05:48:58.447Z,61.84
2023-04-23T05:51:24.953Z,61.92
2023-04-23T05:53:51.465Z,60.25
2023-04-23T05:56:18.005Z,60.34
2023-04-23T05:58:44.667Z,60.58
2023-04-23T06:01:11.388Z,61.15
2023-04-23T06:03:38.267Z,57.41
2023-04-23T06:06:05.042Z,56.31
2023-04-23T06:08:31.473Z,50.75
2023-04-23T06:10:58.208Z,50.00
2023-04-23T06:13:24.799Z,47.13
2023-04-23T06:15:51.601Z,45.68
2023-04-23T06:18:18.137Z,42.74
2023-04-23T06:20:45.118Z,42.14
2023-04-23T06:23:12.949Z,38.63
2023-04-23T06:25:39.543Z,38.10
2023-04-23T06:28:06.556Z,37.84
2023-04-23T06:30:33.777Z,35.68
2023-04-23T06:33:02.087Z,37.31
2023-04-23T06:35:30.001Z,40.99
2023-04-23T06:37:56.503Z,42.30
2023-04-23T06:40:23.016Z,42.44
2023-04-23T06:42:49.670Z,43.94
2023-04-23T06:45:16.220Z,47.61
2023-04-23T06:47:42.802Z,48.78
2023-04-23T06:50:09.401Z,50.70
2023-04-23T06:52:36.468Z,52.23
2023-04-23T06:55:03.872Z,53.63
2023-04-23T06:57:30.401Z,53.60
2023-04-23T06:59:57.416Z,53.21
2023-04-23T07:02:23.994Z,53.94
2023-04-23T07:04:50.752Z,55.52
2023-04-23T07:07:17.545Z,55.92
2023-04-23T07:09:44.308Z,55.94
2023-04-23T07:12:11.251Z,55.89
2023-04-23T07:14:37.748Z,56.50
2023-04-23T07:17:04.325Z,55.58
2023-04-23T07:19:30.938Z,55.97
2023-04-23T07:21:58.172Z,56.07
2023-04-23T07:24:26.546Z,56.29
2023-04-23T07:26:53.385Z,55.58
2023-04-23T07:29:20.102Z,56.75
2023-04-23T07:31:46.889Z,56.52
2023-04-23T07:34:13.410Z,56.60
2023-04-23T07:36:40.051Z,56.58
2023-04-23T07:39:06.668Z,56.89
2023-04-23T07:41:33.383Z,57.11
2023-04-23T07:43:59.883Z,56.30
2023-04-23T07:46:26.515Z,57.38
2023-04-23T07:48:53.579Z,58.02
2023-04-23T07:51:22.422Z,58.01
2023-04-23T07:53:51.184Z,58.48
2023-04-23T07:56:17.645Z,58.29
2023-04-23T07:58:44.019Z,58.07
2023-04-23T08:01:10.750Z,59.18
2023-04-23T08:03:37.307Z,56.71
2023-04-23T08:06:04.821Z,56.98
2023-04-23T08:08:31.845Z,56.23
2023-04-23T08:10:58.911Z,54.80
2023-04-23T08:13:25.531Z,53.26
2023-04-23T08:15:52.333Z,51.89
2023-04-23T08:18:18.901Z,48.54
2023-04-23T08:20:45.569Z,47.45
2023-04-23T08:23:12.610Z,45.69
2023-04-23T08:25:39.613Z,44.76
2023-04-23T08:28:06.350Z,44.19
2023-04-23T08:30:32.948Z,44.97
2023-04-23T08:32:59.717Z,44.37
2023-04-23T08:35:26.369Z,43.77
2023-04-23T08:37:53.012Z,42.42
2023-04-23T08:40:19.547Z,43.40
2023-04-23T08:43:00.633Z,42.37
2023-04-23T08:45:27.335Z,45.42
2023-04-23T08:48:01.769Z,47.37
2023-04-23T08:50:31.065Z,47.90
2023-04-23T08:52:58.476Z,48.59
2023-04-23T08:55:25.822Z,51.14
2023-04-23T08:57:52.463Z,51.84
2023-04-23T09:00:20.725Z,52.73
2023-04-23T09:02:48.678Z,53.93
2023-04-23T09:05:15.721Z,54.55
2023-04-23T09:07:42.654Z,54.60
2023-04-23T09:10:12.987Z,54.26
2023-04-23T09:12:42.701Z,54.44
2023-04-23T09:15:12.878Z,54.79
2023-04-23T09:17:41.300Z,54.20
2023-04-23T09:20:11.408Z,54.14
2023-04-23T09:22:47.545Z,53.06
2023-04-23T09:25:16.643Z,52.43
2023-04-23T09:27:43.403Z,51.56
2023-04-23T09:30:11.791Z,50.31
2023-04-23T09:32:41.461Z,50.21
2023-04-23T09:35:10.490Z,51.98
2023-04-23T09:37:37.225Z,52.06
2023-04-23T09:40:08.547Z,52.79
2023-04-23T09:42:36.552Z,52.29
2023-04-23T09:45:08.394Z,51.69
2023-04-23T09:47:38.226Z,51.16
2023-04-23T09:50:05.770Z,50.22
2023-04-23T09:52:33.866Z,51.45
2023-04-23T09:55:05.257Z,51.71
2023-04-23T09:57:39.180Z,51.40
2023-04-23T10:00:19.915Z,51.03
2023-04-23T10:02:51.334Z,52.80
2023-04-23T10:05:24.993Z,52.92
2023-04-23T10:08:00.131Z,52.73
2023-04-23T10:10:26.948Z,52.62
2023-04-23T10:12:55.766Z,51.48
2023-04-23T10:15:26.707Z,51.53
2023-04-23T10:17:56.855Z,51.62
2023-04-23T10:20:23.891Z,50.48
2023-04-23T10:22:53.432Z,49.99
2023-04-23T10:25:20.276Z,50.37
2023-04-23T10:27:52.813Z,50.73
2023-04-23T10:30:20.838Z,50.83
2023-04-23T10:32:49.395Z,51.54
2023-04-23T10:35:16.142Z,51.69
2023-04-23T10:37:44.723Z,52.23
2023-04-23T10:40:14.286Z,51.56
2023-04-23T10:42:41.650Z,51.18
2023-04-23T10:47:47.965Z,50.96
2023-04-23T10:50:26.571Z,50.83
2023-04-23T10:52:54.373Z,50.94
2023-04-23T10:55:23.500Z,51.22
2023-04-23T10:58:04.236Z,50.80
2023-04-23T11:00:48.559Z,51.36
2023-04-23T11:03:34.242Z,50.64
2023-04-23T11:06:02.483Z,51.39
2023-04-23T11:08:32.072Z,50.48
2023-04-23T11:11:00.188Z,51.69
2023-04-23T11:13:28.736Z,52.71
2023-04-23T11:16:18.706Z,53.41
2023-04-23T11:19:06.312Z,53.04
2023-04-23T11:21:54.727Z,53.16
2023-04-23T11:24:23.710Z,53.66
2023-04-23T11:26:54.505Z,52.88
2023-04-23T11:29:26.514Z,52.41
2023-04-23T11:32:02.625Z,52.10
2023-04-23T11:34:30.158Z,54.02
2023-04-23T11:36:59.302Z,52.90
2023-04-23T11:39:26.959Z,51.35
2023-04-23T11:41:54.124Z,49.67
2023-04-23T11:44:22.199Z,47.80
2023-04-23T11:46:50.064Z,45.10
2023-04-23T11:49:17.596Z,43.40
2023-04-23T11:51:44.977Z,42.11
2023-04-23T11:54:13.826Z,41.64
2023-04-23T11:56:41.040Z,41.87
2023-04-23T11:59:07.915Z,41.03
2023-04-23T12:01:42.496Z,42.33
2023-04-23T12:04:14.389Z,44.13
2023-04-23T12:06:42.861Z,45.03
2023-04-23T12:09:10.766Z,47.45
2023-04-23T12:11:38.140Z,49.02
2023-04-23T12:14:04.669Z,48.58
2023-04-23T12:16:58.280Z,50.60
2023-04-23T12:19:38.329Z,50.07
2023-04-23T12:22:04.947Z,51.41
2023-04-23T12:24:45.714Z,51.76
2023-04-23T12:27:16.073Z,52.69
2023-04-23T12:29:42.892Z,53.45
2023-04-23T12:32:11.738Z,52.80
2023-04-23T12:34:53.115Z,53.76
2023-04-23T12:37:24.702Z,52.91
2023-04-23T12:39:54.024Z,52.28
2023-04-23T12:42:20.773Z,51.37
2023-04-23T12:44:47.622Z,49.67
2023-04-23T12:47:19.409Z,47.78
2023-04-23T12:49:46.819Z,46.83
2023-04-23T12:52:13.992Z,46.67
2023-04-23T12:54:41.097Z,47.45
2023-04-23T12:57:11.145Z,45.33
2023-04-23T12:59:37.976Z,44.67
2023-04-23T13:02:06.967Z,45.44
2023-04-23T13:04:35.154Z,44.95
2023-04-23T13:07:02.719Z,44.29
2023-04-23T13:09:29.601Z,42.84
2023-04-23T13:11:56.467Z,40.83
2023-04-23T13:14:23.724Z,42.29
2023-04-23T13:16:50.736Z,39.77
2023-04-23T13:19:17.676Z,39.77
2023-04-23T13:21:44.649Z,41.33
2023-04-23T13:24:11.350Z,40.26
2023-04-23T13:26:38.019Z,40.28
2023-04-23T13:29:04.586Z,41.42
2023-04-23T13:31:31.446Z,44.09
2023-04-23T13:33:58.508Z,45.41
2023-04-23T13:36:26.103Z,44.61
2023-04-23T13:38:52.910Z,43.21
2023-04-23T13:41:19.329Z,42.09
2023-04-23T13:43:45.874Z,43.16
2023-04-23T13:46:12.430Z,42.71
2023-04-23T13:48:39.040Z,42.76
2023-04-23T13:51:11.483Z,41.70
2023-04-23T13:53:48.252Z,42.76
2023-04-23T13:56:14.918Z,41.87
2023-04-23T13:58:42.946Z,42.51
2023-04-23T14:01:11.743Z,43.57
2023-04-23T14:03:38.185Z,43.87
2023-04-23T14:06:05.421Z,43.58
2023-04-23T14:08:32.199Z,44.51
2023-04-23T14:10:58.669Z,44.82
2023-04-23T14:13:25.067Z,45.39
2023-04-23T14:15:51.888Z,44.84
2023-04-23T14:18:18.701Z,44.01
2023-04-23T14:20:45.169Z,44.22
2023-04-23T14:23:43.250Z,42.13
2023-04-23T14:26:10.830Z,43.79
2023-04-23T14:28:45.969Z,44.16
2023-04-23T14:31:12.531Z,44.05
2023-04-23T14:33:38.932Z,43.99
2023-04-23T14:36:05.826Z,44.69
2023-04-23T14:38:32.322Z,45.55
2023-04-23T14:40:58.829Z,44.69
2023-04-23T14:43:25.556Z,45.87
2023-04-23T14:45:52.227Z,45.80
2023-04-23T14:48:18.886Z,44.62
2023-04-23T14:50:46.104Z,45.50
2023-04-23T14:53:12.575Z,46.36
2023-04-23T14:55:42.779Z,45.70
2023-04-23T14:58:09.377Z,47.09
2023-04-23T15:00:35.997Z,46.00
2023-04-23T15:03:06.975Z,46.18
2023-04-23T15:05:33.588Z,48.12
2023-04-23T15:08:00.221Z,46.28
2023-04-23T15:10:26.792Z,46.26
2023-04-23T15:12:53.373Z,46.77
2023-04-23T15:15:37.006Z,46.76
2023-04-23T15:18:08.369Z,45.78
2023-04-23T15:20:34.943Z,47.71
2023-04-23T15:23:01.546Z,46.77
2023-04-23T15:25:29.589Z,46.98
2023-04-23T15:27:58.624Z,44.93
2023-04-23T15:30:26.246Z,45.48
2023-04-23T15:32:55.425Z,46.20
2023-04-23T15:35:23.126Z,45.86
2023-04-23T15:37:50.692Z,45.92
2023-04-23T15:40:17.494Z,45.61
2023-04-23T15:42:48.032Z,45.45
2023-04-23T15:45:14.906Z,45.59
2023-04-23T15:47:42.270Z,47.71
2023-04-23T15:50:09.914Z,49.45
2023-04-23T15:52:37.376Z,51.64
2023-04-23T15:55:04.909Z,52.52
2023-04-23T15:57:32.172Z,55.04
2023-04-23T15:59:58.782Z,60.19
2023-04-23T16:02:25.457Z,60.27
2023-04-23T16:04:52.137Z,61.96
2023-04-23T16:07:19.288Z,61.33
2023-04-23T16:09:45.825Z,60.25
2023-04-23T16:12:12.680Z,60.71
2023-04-23T16:14:40.039Z,59.55
2023-04-23T16:17:06.689Z,60.01
2023-04-23T16:19:33.479Z,57.32
2023-04-23T16:22:00.227Z,59.59
2023-04-23T16:24:26.902Z,58.67
2023-04-23T16:26:53.824Z,60.08
2023-04-23T16:29:22.778Z,58.15
2023-04-23T16:31:50.148Z,58.54
2023-04-23T16:34:16.893Z,58.16
2023-04-23T16:36:43.820Z,57.26
2023-04-23T16:39:11.370Z,57.98
2023-04-23T16:41:37.961Z,57.32
2023-04-23T16:44:04.540Z,58.02
2023-04-23T16:46:31.869Z,57.38
2023-04-23T16:48:58.668Z,59.26
2023-04-23T16:51:26.402Z,59.80
2023-04-23T16:53:53.156Z,58.49
2023-04-23T16:56:20.723Z,59.24
2023-04-23T16:58:47.280Z,58.37
2023-04-23T17:01:13.793Z,57.75
2023-04-23T17:03:40.657Z,58.61
2023-04-23T17:06:10.103Z,59.49
2023-04-23T17:08:38.050Z,59.54
2023-04-23T17:11:06.478Z,60.11
2023-04-23T17:13:34.174Z,60.86
2023-04-23T17:16:01.857Z,61.05
2023-04-23T17:18:29.115Z,60.55
2023-04-23T17:20:55.779Z,60.60
2023-04-23T17:23:22.379Z,60.91
2023-04-23T17:25:49.533Z,60.13
2023-04-23T17:28:18.356Z,61.71
2023-04-23T17:30:45.950Z,61.03
2023-04-23T17:33:12.844Z,60.76
2023-04-23T17:35:39.937Z,60.56
2023-04-23T17:38:06.767Z,60.23
2023-04-23T17:40:33.219Z,59.84
2023-04-23T17:43:00.043Z,61.07
2023-04-23T17:45:26.896Z,61.69
2023-04-23T17:47:54.090Z,61.73
2023-04-23T17:50:21.460Z,61.89
2023-04-23T17:52:48.073Z,61.53
2023-04-23T17:55:14.887Z,61.70
2023-04-23T17:57:41.614Z,62.20
2023-04-23T18:00:12.291Z,62.76
2023-04-23T18:02:41.853Z,61.97
2023-04-23T18:05:09.440Z,62.62
2023-04-23T18:07:36.557Z,63.35
2023-04-23T18:10:04.038Z,63.71
2023-04-23T18:12:31.138Z,63.76
2023-04-23T18:14:57.919Z,64.19
2023-04-23T18:17:25.667Z,64.18
2023-04-23T18:19:53.625Z,64.78
2023-04-23T18:22:24.052Z,65.32
2023-04-23T18:24:50.879Z,65.41
2023-04-23T18:27:17.450Z,66.05
2023-04-23T18:29:44.482Z,66.22
2023-04-23T18:32:15.849Z,66.28
2023-04-23T18:34:48.335Z,66.46
2023-04-23T18:37:31.705Z,66.31
2023-04-23T18:39:58.550Z,67.01
2023-04-23T18:42:24.962Z,66.84
2023-04-23T18:44:51.527Z,67.26
2023-04-23T18:47:18.676Z,66.75
2023-04-23T18:49:57.203Z,67.18
2023-04-23T18:52:23.730Z,67.10
2023-04-23T18:54:51.016Z,67.20
2023-04-23T18:57:17.572Z,67.72
2023-04-23T18:59:44.165Z,67.65
2023-04-23T19:02:14.633Z,67.20
2023-04-23T19:04:45.580Z,67.13
2023-04-23T19:07:12.321Z,67.16
2023-04-23T19:09:38.908Z,67.05
2023-04-23T19:12:05.702Z,67.51
2023-04-23T19:14:32.151Z,68.17
2023-04-23T19:16:58.878Z,68.80
2023-04-23T19:19:26.173Z,69.10
2023-04-23T19:21:52.851Z,68.99
2023-04-23T19:24:19.485Z,69.01
2023-04-23T19:26:46.017Z,69.50
2023-04-23T19:29:13.179Z,69.68
2023-04-23T19:31:39.705Z,71.02
2023-04-23T19:34:06.336Z,71.43
2023-04-23T19:36:33.170Z,70.84
2023-04-23T19:38:59.862Z,72.33
2023-04-23T19:41:26.472Z,72.43
2023-04-23T19:43:53.021Z,72.10
2023-04-23T19:46:19.558Z,72.97
2023-04-23T19:48:46.100Z,72.15
2023-04-23T19:51:12.597Z,72.28
2023-04-23T19:53:39.783Z,72.41
2023-04-23T19:56:08.591Z,72.36
2023-04-23T19:58:36.054Z,73.07
2023-04-23T20:01:02.815Z,72.16
2023-04-23T20:03:30.154Z,72.36
2023-04-23T20:05:58.416Z,72.85
2023-04-23T20:08:41.382Z,73.54
2023-04-23T20:11:11.263Z,74.00
2023-04-23T20:13:37.986Z,73.44
2023-04-23T20:16:04.752Z,74.63
2023-04-23T20:18:35.126Z,74.63
2023-04-23T20:21:01.799Z,74.56
2023-04-23T20:23:28.381Z,75.61
2023-04-23T20:25:54.813Z,76.26
2023-04-23T20:28:21.607Z,75.98
2023-04-23T20:30:48.010Z,76.34
2023-04-23T20:33:16.167Z,76.25
2023-04-23T20:35:43.290Z,75.78
2023-04-23T20:38:09.929Z,75.60
2023-04-23T20:40:36.722Z,74.92
2023-04-23T20:43:04.508Z,75.16
2023-04-23T20:45:30.976Z,75.03
2023-04-23T20:47:57.734Z,75.38
2023-04-23T20:50:24.387Z,75.45
2023-04-23T20:52:50.920Z,76.88
2023-04-23T20:55:17.757Z,77.35
2023-04-23T20:57:44.393Z,77.73
2023-04-23T21:00:14.201Z,77.09
2023-04-23T21:02:41.030Z,76.10
2023-04-23T21:05:08.076Z,77.18
2023-04-23T21:07:36.636Z,77.58
2023-04-23T21:10:06.861Z,76.99
2023-04-23T21:12:33.549Z,77.19
2023-04-23T21:15:00.608Z,77.13
2023-04-23T21:17:27.030Z,76.72
2023-04-23T21:19:53.439Z,77.37
2023-04-23T21:22:19.915Z,76.76
2023-04-23T21:24:46.368Z,76.98
2023-04-23T21:27:15.731Z,77.03
2023-04-23T21:29:44.381Z,76.96
2023-04-23T21:32:11.533Z,77.15
2023-04-23T21:34:38.025Z,76.91
2023-04-23T21:37:04.541Z,77.75
2023-04-23T21:39:31.982Z,76.86
2023-04-23T21:41:58.702Z,77.74
2023-04-23T21:44:26.748Z,78.15
2023-04-23T21:46:53.793Z,78.23
2023-04-23T21:49:20.254Z,78.90
2023-04-23T21:51:46.746Z,79.29
2023-04-23T21:54:13.237Z,78.21
2023-04-23T21:56:39.790Z,79.14
2023-04-23T21:59:06.356Z,79.25
2023-04-23T22:01:35.041Z,79.50
2023-04-23T22:04:04.738Z,78.69
2023-04-23T22:06:31.364Z,78.82
2023-04-23T22:08:57.826Z,78.77
2023-04-23T22:11:24.395Z,78.73
2023-04-23T22:13:51.012Z,78.89
2023-04-23T22:16:27.506Z,79.22
2023-04-23T22:18:56.071Z,79.57
2023-04-23T22:21:22.650Z,80.21
2023-04-23T22:23:49.144Z,80.30
2023-04-23T22:26:15.861Z,79.87
2023-04-23T22:28:43.529Z,81.11
2023-04-23T22:31:10.107Z,81.96
2023-04-23T22:33:37.630Z,82.53
2023-04-23T22:36:05.275Z,82.05
2023-04-23T22:38:32.696Z,82.62
2023-04-23T22:40:59.699Z,83.35
2023-04-23T22:43:26.261Z,83.59
2023-04-23T22:45:52.816Z,82.66
2023-04-23T22:48:19.744Z,82.72
2023-04-23T22:50:46.250Z,82.46
2023-04-23T22:53:12.975Z,82.18
2023-04-23T22:55:39.677Z,82.62
2023-04-23T22:58:06.149Z,82.21
2023-04-23T23:00:33.109Z,83.54
2023-04-23T23:02:59.717Z,82.45
2023-04-23T23:05:26.661Z,83.18
2023-04-23T23:07:54.333Z,81.22
2023-04-23T23:10:22.741Z,82.05
2023-04-23T23:12:49.526Z,81.76
2023-04-23T23:15:16.367Z,81.67
2023-04-23T23:17:42.930Z,82.43
2023-04-23T23:20:10.139Z,82.08
2023-04-23T23:22:37.570Z,82.51
2023-04-23T23:25:05.872Z,82.80
2023-04-23T23:27:32.660Z,82.62
2023-04-23T23:29:59.548Z,83.72
2023-04-23T23:32:26.128Z,83.34
2023-04-23T23:34:52.829Z,83.22
2023-04-23T23:37:19.645Z,83.34
2023-04-23T23:39:46.731Z,83.02
2023-04-23T23:42:13.342Z,82.96
2023-04-23T23:44:39.783Z,82.93
2023-04-23T23:47:06.596Z,84.23
2023-04-23T23:49:33.370Z,83.64
2023-04-23T23:51:59.924Z,83.71
2023-04-23T23:54:26.602Z,83.50
2023-04-23T23:56:53.222Z,83.83
2023-04-23T23:59:19.696Z,84.63
